createdAt,value
2023-04-26T00:03:01.807Z,0.95
2023-04-26T00:06:09.059Z,0.73
2023-04-26T00:09:14.788Z,1.00
2023-04-26T00:12:18.991Z,1.15
2023-04-26T00:15:22.690Z,1.02
2023-04-26T00:18:26.178Z,0.85
2023-04-26T00:21:29.750Z,1.10
2023-04-26T00:24:35.122Z,0.90
2023-04-26T00:27:38.709Z,0.95
2023-04-26T00:30:47.655Z,0.95
2023-04-26T00:33:52.829Z,0.98
2023-04-26T00:36:59.920Z,1.40
2023-04-26T00:40:07.319Z,1.17
2023-04-26T00:43:11.828Z,0.70
2023-04-26T00:46:15.411Z,0.77
2023-04-26T00:49:21.736Z,1.33
2023-04-26T00:52:26.065Z,0.77
2023-04-26T00:55:31.708Z,0.90
2023-04-26T00:58:36.138Z,1.10
2023-04-26T01:01:44.831Z,1.25
2023-04-26T01:04:49.776Z,0.90
2023-04-26T01:07:54.308Z,1.10
2023-04-26T01:11:00.595Z,0.88
2023-04-26T01:14:04.164Z,1.15
2023-04-26T01:17:08.457Z,0.90
2023-04-26T01:20:18.056Z,0.90
2023-04-26T01:23:25.307Z,1.00
2023-04-26T01:26:28.943Z,0.88
2023-04-26T01:29:34.075Z,0.88
2023-04-26T01:32:37.776Z,0.93
2023-04-26T01:35:41.899Z,1.00
2023-04-26T01:38:47.445Z,0.60
2023-04-26T01:41:51.255Z,0.60
2023-04-26T01:44:55.708Z,0.80
2023-04-26T01:47:59.639Z,0.77
2023-04-26T01:51:03.165Z,0.60
2023-04-26T01:54:08.639Z,1.00
2023-04-26T01:57:13.043Z,0.65
2023-04-26T02:00:17.148Z,0.90
2023-04-26T02:03:21.537Z,0.75
2023-04-26T02:06:27.853Z,0.85
2023-04-26T02:09:33.216Z,0.95
2023-04-26T02:12:36.929Z,0.93
2023-04-26T02:15:51.368Z,1.02
2023-04-26T02:18:59.486Z,1.10
2023-04-26T02:22:02.984Z,0.60
2023-04-26T02:25:10.006Z,1.10
2023-04-26T02:28:17.943Z,1.30
2023-04-26T02:31:22.835Z,0.93
2023-04-26T02:34:28.253Z,0.93
2023-04-26T02:37:32.095Z,1.00
2023-04-26T02:40:37.121Z,1.30
2023-04-26T02:43:40.913Z,1.13
2023-04-26T02:46:44.883Z,1.05
2023-04-26T02:49:49.026Z,1.35
2023-04-26T02:52:53.067Z,1.05
2023-04-26T02:55:58.264Z,1.40
2023-04-26T02:59:01.874Z,1.08
2023-04-26T03:02:07.635Z,1.33
2023-04-26T03:05:13.708Z,0.88
2023-04-26T03:08:18.439Z,1.23
2023-04-26T03:11:23.803Z,2.08
2023-04-26T03:14:27.639Z,0.75
2023-04-26T03:17:33.397Z,1.30
2023-04-26T03:20:37.090Z,1.27
2023-04-26T03:23:41.287Z,1.50
2023-04-26T03:26:46.673Z,1.25
2023-04-26T03:29:51.333Z,1.20
2023-04-26T03:32:56.052Z,1.13
2023-04-26T03:36:04.129Z,1.25
2023-04-26T03:39:13.683Z,1.40
2023-04-26T03:42:27.499Z,1.13
2023-04-26T03:45:36.315Z,1.15
2023-04-26T03:48:45.121Z,1.42
2023-04-26T03:51:50.509Z,1.08
2023-04-26T03:54:54.493Z,1.13
2023-04-26T03:57:59.613Z,1.08
2023-04-26T04:01:05.005Z,0.93
2023-04-26T04:04:09.971Z,1.25
2023-04-26T04:07:14.099Z,1.35
2023-04-26T04:10:17.792Z,1.30
2023-04-26T04:13:23.926Z,1.33
2023-04-26T04:16:27.847Z,1.10
2023-04-26T04:19:31.562Z,0.95
2023-04-26T04:22:35.163Z,1.23
2023-04-26T04:25:38.969Z,1.50
2023-04-26T04:28:47.021Z,1.10
2023-04-26T04:31:50.888Z,1.08
2023-04-26T04:34:55.331Z,0.90
2023-04-26T04:38:03.003Z,1.40
2023-04-26T04:41:10.581Z,1.77
2023-04-26T04:44:16.677Z,0.98
2023-04-26T04:47:20.799Z,1.20
2023-04-26T04:50:24.510Z,1.20
2023-04-26T04:53:28.386Z,1.30
2023-04-26T04:56:31.910Z,1.08
2023-04-26T04:59:37.678Z,0.85
2023-04-26T05:02:41.795Z,1.30
2023-04-26T05:05:45.709Z,1.02
2023-04-26T05:08:49.966Z,1.13
2023-04-26T05:11:53.776Z,0.90
2023-04-26T05:14:58.816Z,1.10
2023-04-26T05:18:02.911Z,1.77
2023-04-26T05:21:07.565Z,1.13
2023-04-26T05:24:14.109Z,1.13
2023-04-26T05:27:18.005Z,1.10
2023-04-26T05:30:50.176Z,1.17
2023-04-26T05:34:11.361Z,1.17
2023-04-26T05:37:17.138Z,1.05
2023-04-26T05:40:21.329Z,1.00
2023-04-26T05:43:24.985Z,1.10
2023-04-26T05:46:30.572Z,0.93
2023-04-26T05:49:34.299Z,1.20
2023-04-26T05:52:38.130Z,1.10
2023-04-26T05:55:45.750Z,1.02
2023-04-26T05:58:49.451Z,1.15
2023-04-26T06:01:55.481Z,1.52
2023-04-26T06:05:00.218Z,1.40
2023-04-26T06:08:04.170Z,1.50
2023-04-26T06:11:09.248Z,1.40
2023-04-26T06:14:28.797Z,1.67
2023-04-26T06:17:39.926Z,1.63
2023-04-26T06:20:45.738Z,1.38
2023-04-26T06:23:51.534Z,1.45
2023-04-26T06:26:56.918Z,1.52
2023-04-26T06:30:02.332Z,1.52
2023-04-26T06:33:09.801Z,1.50
2023-04-26T06:36:15.915Z,1.33
2023-04-26T06:39:19.618Z,1.27
2023-04-26T06:42:23.495Z,1.30
2023-04-26T06:45:43.757Z,1.90
2023-04-26T06:48:50.783Z,1.40
2023-04-26T06:51:58.102Z,1.75
2023-04-26T06:55:08.563Z,1.60
2023-04-26T06:58:16.875Z,1.70
2023-04-26T07:01:31.313Z,1.33
2023-04-26T07:04:39.591Z,1.70
2023-04-26T07:07:43.692Z,1.63
2023-04-26T07:10:47.323Z,2.13
2023-04-26T07:13:51.311Z,1.50
2023-04-26T07:17:02.015Z,1.83
2023-04-26T07:20:10.259Z,1.55
2023-04-26T07:23:17.086Z,2.28
2023-04-26T07:26:21.141Z,1.60
2023-04-26T07:29:25.099Z,2.10
2023-04-26T07:32:28.722Z,1.45
2023-04-26T07:35:38.652Z,1.77
2023-04-26T07:38:43.326Z,1.35
2023-04-26T07:41:46.669Z,1.60
2023-04-26T07:44:51.094Z,2.03
2023-04-26T07:47:55.098Z,1.88
2023-04-26T07:51:09.017Z,1.55
2023-04-26T07:54:13.151Z,1.30
2023-04-26T07:57:17.646Z,2.05
2023-04-26T08:00:22.785Z,1.77
2023-04-26T08:03:28.800Z,1.40
2023-04-26T08:06:34.116Z,1.80
2023-04-26T08:09:37.732Z,1.35
2023-04-26T08:12:41.634Z,1.70
2023-04-26T08:15:46.769Z,1.25
2023-04-26T08:18:51.915Z,1.23
2023-04-26T08:21:57.375Z,1.55
2023-04-26T08:25:01.436Z,1.15
2023-04-26T08:28:07.936Z,0.98
2023-04-26T08:31:11.674Z,1.15
2023-04-26T08:34:15.471Z,1.42
2023-04-26T08:37:20.633Z,1.35
2023-04-26T08:40:26.200Z,1.20
2023-04-26T08:43:33.503Z,1.27
2023-04-26T08:46:40.337Z,1.13
2023-04-26T08:49:47.752Z,0.73
2023-04-26T08:52:54.169Z,0.60
2023-04-26T08:55:57.753Z,1.10
2023-04-26T08:59:04.696Z,0.65
2023-04-26T09:02:09.589Z,0.68
2023-04-26T09:05:14.653Z,0.77
2023-04-26T09:08:22.215Z,0.75
2023-04-26T09:11:26.317Z,0.80
2023-04-26T09:14:30.372Z,0.65
2023-04-26T09:17:39.232Z,0.82
2023-04-26T09:20:43.205Z,0.77
2023-04-26T09:24:01.902Z,0.75
2023-04-26T09:27:07.243Z,1.02
2023-04-26T09:30:17.915Z,0.60
2023-04-26T09:33:35.165Z,0.82
2023-04-26T09:36:52.935Z,0.70
2023-04-26T09:39:59.716Z,0.93
2023-04-26T09:43:06.647Z,1.02
2023-04-26T09:46:24.202Z,1.15
2023-04-26T09:49:28.624Z,1.17
2023-04-26T09:52:33.664Z,1.90
2023-04-26T09:55:39.394Z,1.40
2023-04-26T09:58:58.863Z,1.38
2023-04-26T10:02:03.084Z,2.65
2023-04-26T10:05:07.598Z,1.05
2023-04-26T10:08:11.530Z,1.15
2023-04-26T10:11:21.793Z,0.80
2023-04-26T10:14:30.018Z,1.20
2023-04-26T10:17:33.775Z,1.35
2023-04-26T10:20:42.710Z,1.00
2023-04-26T10:23:47.673Z,1.20
2023-04-26T10:26:58.368Z,1.27
2023-04-26T10:30:10.428Z,1.27
2023-04-26T10:33:19.704Z,1.27
2023-04-26T10:36:29.354Z,1.20
2023-04-26T10:39:43.030Z,1.38
2023-04-26T10:42:53.573Z,1.02
2023-04-26T10:46:03.693Z,1.00
2023-04-26T10:49:18.716Z,0.73
2023-04-26T10:52:25.686Z,0.80
2023-04-26T10:55:44.273Z,0.93
2023-04-26T10:59:28.361Z,1.10
2023-04-26T11:02:58.427Z,0.65
2023-04-26T11:06:14.915Z,0.82
2023-04-26T11:09:40.251Z,0.60
2023-04-26T11:13:05.537Z,0.73
2023-04-26T11:16:17.012Z,0.90
2023-04-26T11:19:26.196Z,0.80
2023-04-26T11:22:35.615Z,0.60
2023-04-26T11:25:44.337Z,0.55
2023-04-26T11:28:52.770Z,0.90
2023-04-26T11:32:05.632Z,0.63
2023-04-26T11:35:17.303Z,0.88
2023-04-26T11:38:25.527Z,0.75
2023-04-26T11:41:32.953Z,0.55
2023-04-26T11:44:45.109Z,0.73
2023-04-26T11:47:57.587Z,0.70
2023-04-26T11:51:12.286Z,0.70
2023-04-26T11:54:33.602Z,0.82
2023-04-26T11:57:43.254Z,0.98
2023-04-26T12:01:04.765Z,0.90
2023-04-26T12:04:16.562Z,1.00
2023-04-26T12:07:28.678Z,0.68
2023-04-26T12:10:39.104Z,0.75
2023-04-26T12:13:48.846Z,0.80
2023-04-26T12:16:59.721Z,1.02
2023-04-26T12:20:20.386Z,1.13
2023-04-26T12:23:32.223Z,0.73
2023-04-26T12:26:46.609Z,1.00
2023-04-26T12:29:50.249Z,1.50
2023-04-26T12:33:09.057Z,1.00
2023-04-26T12:36:32.382Z,1.20
2023-04-26T12:39:39.815Z,0.60
2023-04-26T12:42:50.840Z,1.33
2023-04-26T12:46:01.030Z,0.80
2023-04-26T12:49:08.953Z,0.85
2023-04-26T12:52:23.379Z,0.70
2023-04-26T12:55:30.656Z,0.98
2023-04-26T12:58:40.010Z,0.40
2023-04-26T13:01:48.006Z,0.68
2023-04-26T13:04:56.537Z,0.55
2023-04-26T13:08:11.117Z,0.70
2023-04-26T13:11:22.835Z,0.68
2023-04-26T13:14:34.012Z,0.60
2023-04-26T13:17:39.949Z,0.63
2023-04-26T13:20:43.702Z,0.57
2023-04-26T13:23:50.564Z,0.95
2023-04-26T13:26:54.764Z,0.73
2023-04-26T13:30:02.070Z,0.60
2023-04-26T13:33:09.261Z,0.55
2023-04-26T13:36:15.716Z,0.70
2023-04-26T13:39:22.006Z,0.70
2023-04-26T13:42:27.219Z,0.93
2023-04-26T13:45:35.726Z,0.50
2023-04-26T13:48:42.322Z,0.63
2023-04-26T13:51:53.578Z,0.30
2023-04-26T13:55:00.832Z,0.63
2023-04-26T13:58:07.161Z,0.68
2023-04-26T14:01:11.507Z,0.68
2023-04-26T14:04:15.869Z,0.60
2023-04-26T14:07:21.034Z,0.60
2023-04-26T14:10:29.567Z,0.57
2023-04-26T14:13:34.292Z,0.60
2023-04-26T14:16:47.057Z,0.77
2023-04-26T14:19:51.413Z,0.60
2023-04-26T14:22:56.293Z,0.70
2023-04-26T14:26:01.620Z,0.60
2023-04-26T14:29:06.318Z,0.70
2023-04-26T14:32:10.459Z,0.50
2023-04-26T14:35:14.744Z,0.70
2023-04-26T14:38:19.084Z,0.80
2023-04-26T14:41:24.380Z,0.60
2023-04-26T14:44:29.237Z,0.63
2023-04-26T14:47:33.344Z,0.90
2023-04-26T14:50:37.353Z,0.57
2023-04-26T14:53:44.256Z,0.65
2023-04-26T14:56:51.390Z,0.60
2023-04-26T14:59:57.736Z,0.75
2023-04-26T15:03:02.772Z,0.60
2023-04-26T15:06:10.860Z,0.80
2023-04-26T15:09:14.809Z,0.70
2023-04-26T15:12:20.526Z,0.70
2023-04-26T15:15:24.438Z,0.40
2023-04-26T15:18:29.524Z,0.80
2023-04-26T15:21:34.520Z,0.60
2023-04-26T15:24:38.917Z,0.75
2023-04-26T15:27:46.070Z,0.77
2023-04-26T15:30:50.872Z,0.65
2023-04-26T15:33:56.854Z,0.40
2023-04-26T15:37:01.658Z,0.68
2023-04-26T15:40:13.202Z,0.70
2023-04-26T15:43:22.808Z,0.60
2023-04-26T15:46:27.360Z,0.80
2023-04-26T15:49:39.709Z,0.68
2023-04-26T15:52:46.804Z,0.77
2023-04-26T15:55:50.482Z,0.45
2023-04-26T15:58:57.099Z,0.70
2023-04-26T16:02:06.397Z,0.80
2023-04-26T16:05:14.594Z,0.93
2023-04-26T16:08:36.782Z,0.95
2023-04-26T16:11:44.879Z,0.93
2023-04-26T16:14:53.602Z,0.50
2023-04-26T16:17:57.374Z,1.35
2023-04-26T16:21:06.215Z,0.88
2023-04-26T16:24:11.644Z,0.80
2023-04-26T16:27:17.448Z,0.73
2023-04-26T16:30:24.245Z,0.77
2023-04-26T16:33:28.246Z,0.80
2023-04-26T16:36:33.475Z,0.73
2023-04-26T16:39:38.305Z,0.90
2023-04-26T16:42:43.634Z,0.77
2023-04-26T16:45:58.345Z,0.90
2023-04-26T16:49:04.219Z,0.75
2023-04-26T16:52:08.507Z,0.80
2023-04-26T16:55:12.399Z,1.20
2023-04-26T16:58:16.859Z,0.82
2023-04-26T17:01:22.517Z,1.00
2023-04-26T17:04:30.004Z,0.80
2023-04-26T17:07:34.003Z,0.70
2023-04-26T17:10:38.820Z,0.90
2023-04-26T17:13:42.323Z,0.60
2023-04-26T17:16:47.726Z,0.90
2023-04-26T17:19:52.019Z,0.93
2023-04-26T17:22:56.155Z,0.77
2023-04-26T17:26:02.007Z,0.60
2023-04-26T17:29:08.548Z,0.95
2023-04-26T17:32:13.809Z,1.15
2023-04-26T17:35:18.152Z,0.80
2023-04-26T17:38:23.534Z,0.82
2023-04-26T17:41:28.099Z,0.70
2023-04-26T17:44:38.599Z,0.95
2023-04-26T17:47:49.576Z,0.90
2023-04-26T17:50:57.098Z,1.00
2023-04-26T17:54:01.786Z,1.10
2023-04-26T17:57:05.613Z,1.13
2023-04-26T18:00:11.400Z,0.80
2023-04-26T18:03:20.273Z,1.00
2023-04-26T18:06:24.655Z,1.00
2023-04-26T18:09:28.614Z,0.82
2023-04-26T18:12:35.189Z,0.52
2023-04-26T18:15:40.614Z,0.68
2023-04-26T18:18:49.047Z,0.93
2023-04-26T18:21:54.569Z,0.98
2023-04-26T18:24:58.966Z,0.95
2023-04-26T18:28:03.606Z,0.82
2023-04-26T18:31:09.717Z,0.95
2023-04-26T18:34:16.675Z,0.90
2023-04-26T18:38:07.077Z,1.17
2023-04-26T18:41:41.299Z,1.00
2023-04-26T18:44:53.811Z,0.82
2023-04-26T18:47:58.009Z,0.70
2023-04-26T18:51:06.563Z,0.65
2023-04-26T18:54:10.802Z,0.98
2023-04-26T18:57:14.780Z,0.85
2023-04-26T19:00:18.867Z,0.75
2023-04-26T19:03:23.328Z,0.90
2023-04-26T19:06:31.585Z,1.25
2023-04-26T19:09:50.457Z,0.73
2023-04-26T19:12:59.345Z,0.77
2023-04-26T19:16:04.752Z,1.15
2023-04-26T19:19:11.061Z,0.90
2023-04-26T19:22:16.461Z,0.80
2023-04-26T19:25:25.429Z,0.65
2023-04-26T19:28:34.787Z,0.93
2023-04-26T19:31:40.427Z,1.00
2023-04-26T19:34:44.197Z,0.90
2023-04-26T19:37:49.572Z,0.80
2023-04-26T19:40:55.941Z,1.02
2023-04-26T19:44:04.674Z,1.10
2023-04-26T19:47:13.844Z,1.20
2023-04-26T19:50:17.892Z,1.00
2023-04-26T19:53:23.395Z,0.88
2023-04-26T19:56:29.312Z,1.00
2023-04-26T19:59:35.207Z,0.88
2023-04-26T20:02:42.177Z,0.88
2023-04-26T20:05:46.131Z,0.90
2023-04-26T20:08:51.005Z,1.23
2023-04-26T20:11:54.795Z,1.10
2023-04-26T20:14:58.344Z,1.08
2023-04-26T20:18:03.152Z,1.17
2023-04-26T20:21:06.971Z,0.93
2023-04-26T20:24:15.003Z,1.23
2023-04-26T20:27:22.102Z,1.00
2023-04-26T20:30:26.078Z,0.85
2023-04-26T20:33:32.512Z,0.88
2023-04-26T20:36:36.068Z,0.80
2023-04-26T20:39:43.322Z,1.20
2023-04-26T20:42:48.472Z,0.93
2023-04-26T20:45:56.042Z,1.05
2023-04-26T20:49:02.775Z,1.00
2023-04-26T20:52:06.851Z,1.00
2023-04-26T20:55:12.200Z,1.20
2023-04-26T20:58:15.902Z,0.98
2023-04-26T21:01:28.409Z,0.90
2023-04-26T21:04:38.662Z,1.20
2023-04-26T21:07:45.021Z,1.17
2023-04-26T21:10:50.086Z,1.15
2023-04-26T21:13:54.168Z,1.17
2023-04-26T21:16:57.564Z,1.02
2023-04-26T21:20:01.376Z,0.90
2023-04-26T21:23:04.729Z,1.05
2023-04-26T21:26:10.042Z,1.05
2023-04-26T21:29:14.532Z,0.75
2023-04-26T21:32:17.873Z,0.80
2023-04-26T21:35:21.671Z,1.30
2023-04-26T21:38:25.363Z,1.00
2023-04-26T21:41:33.277Z,1.45
2023-04-26T21:44:38.038Z,1.10
2023-04-26T21:47:42.786Z,1.25
2023-04-26T21:50:52.436Z,1.00
2023-04-26T21:53:58.174Z,0.77
2023-04-26T21:57:07.152Z,1.10
2023-04-26T22:00:15.590Z,0.98
2023-04-26T22:03:23.427Z,0.85
2023-04-26T22:06:29.094Z,1.38
2023-04-26T22:09:39.174Z,1.10
2023-04-26T22:12:45.008Z,1.35
2023-04-26T22:15:52.226Z,1.10
2023-04-26T22:18:58.777Z,1.42
2023-04-26T22:22:09.465Z,1.17
2023-04-26T22:25:16.999Z,1.40
2023-04-26T22:28:22.423Z,1.20
2023-04-26T22:31:28.150Z,1.20
2023-04-26T22:34:31.683Z,1.20
2023-04-26T22:37:38.953Z,0.85
2023-04-26T22:40:47.607Z,1.13
2023-04-26T22:43:53.389Z,1.13
2023-04-26T22:46:59.387Z,0.93
2023-04-26T22:50:02.965Z,1.25
2023-04-26T22:53:06.915Z,1.33
2023-04-26T22:56:10.800Z,1.00
2023-04-26T22:59:16.080Z,1.02
2023-04-26T23:02:20.144Z,1.27
2023-04-26T23:05:27.168Z,1.40
2023-04-26T23:08:30.879Z,1.30
2023-04-26T23:11:38.435Z,1.00
2023-04-26T23:14:44.077Z,1.10
2023-04-26T23:17:50.866Z,1.02
2023-04-26T23:20:55.855Z,1.02
2023-04-26T23:24:01.031Z,1.45
2023-04-26T23:27:08.067Z,1.40
2023-04-26T23:30:16.658Z,1.30
2023-04-26T23:33:20.981Z,1.73
2023-04-26T23:36:24.654Z,1.48
2023-04-26T23:39:31.961Z,1.48
2023-04-26T23:42:35.699Z,1.67
2023-04-26T23:45:47.123Z,2.42
2023-04-26T23:48:51.520Z,1.55
2023-04-26T23:51:54.913Z,1.42
2023-04-26T23:55:02.189Z,1.35
2023-04-26T23:58:07.543Z,1.23
